sensor_id;sensor_type;location;lat;lon;timestamp;P1;durP1;ratioP1;P2;durP2;ratioP2
53391;SDS011;41667;51.922;8.850;2023-11-19T00:01:26;0.88;;;0.88;;
53391;SDS011;41667;51.922;8.850;2023-11-19T00:03:51;0.80;;;0.80;;
53391;SDS011;41667;51.922;8.850;2023-11-19T00:06:16;0.80;;;0.80;;
53391;SDS011;41667;51.922;8.850;2023-11-19T00:08:42;0.68;;;0.68;;
53391;SDS011;41667;51.922;8.850;2023-11-19T00:11:08;0.70;;;0.70;;
53391;SDS011;41667;51.922;8.850;2023-11-19T00:13:34;0.80;;;0.80;;
53391;SDS011;41667;51.922;8.850;2023-11-19T00:15:59;0.85;;;0.85;;
53391;SDS011;41667;51.922;8.850;2023-11-19T00:18:24;0.80;;;0.80;;
53391;SDS011;41667;51.922;8.850;2023-11-19T00:20:50;0.80;;;0.80;;
53391;SDS011;41667;51.922;8.850;2023-11-19T00:23:15;0.68;;;0.68;;
53391;SDS011;41667;51.922;8.850;2023-11-19T00:25:40;1.15;;;0.85;;
53391;SDS011;41667;51.922;8.850;2023-11-19T00:28:06;0.80;;;0.80;;
53391;SDS011;41667;51.922;8.850;2023-11-19T00:30:31;0.80;;;0.80;;
53391;SDS011;41667;51.922;8.850;2023-11-19T00:32:56;1.10;;;0.90;;
53391;SDS011;41667;51.922;8.850;2023-11-19T00:35:21;0.90;;;0.90;;
53391;SDS011;41667;51.922;8.850;2023-11-19T00:37:47;1.30;;;1.20;;
53391;SDS011;41667;51.922;8.850;2023-11-19T00:40:12;0.95;;;0.95;;
53391;SDS011;41667;51.922;8.850;2023-11-19T00:42:38;0.90;;;0.90;;
53391;SDS011;41667;51.922;8.850;2023-11-19T00:45:04;1.23;;;1.20;;
53391;SDS011;41667;51.922;8.850;2023-11-19T00:47:33;0.93;;;0.93;;
53391;SDS011;41667;51.922;8.850;2023-11-19T00:50:00;0.70;;;0.70;;
53391;SDS011;41667;51.922;8.850;2023-11-19T00:52:25;0.80;;;0.80;;
53391;SDS011;41667;51.922;8.850;2023-11-19T00:54:50;1.55;;;0.90;;
53391;SDS011;41667;51.922;8.850;2023-11-19T00:57:16;0.77;;;0.77;;
53391;SDS011;41667;51.922;8.850;2023-11-19T00:59:42;0.63;;;0.63;;
53391;SDS011;41667;51.922;8.850;2023-11-19T01:02:07;0.80;;;0.80;;
53391;SDS011;41667;51.922;8.850;2023-11-19T01:04:33;0.93;;;0.93;;
53391;SDS011;41667;51.922;8.850;2023-11-19T01:07:00;0.93;;;0.93;;
53391;SDS011;41667;51.922;8.850;2023-11-19T01:09:26;1.00;;;1.00;;
53391;SDS011;41667;51.922;8.850;2023-11-19T01:11:51;1.08;;;0.98;;
53391;SDS011;41667;51.922;8.850;2023-11-19T01:14:17;0.73;;;0.73;;
53391;SDS011;41667;51.922;8.850;2023-11-19T01:16:42;0.80;;;0.80;;
53391;SDS011;41667;51.922;8.850;2023-11-19T01:19:08;0.82;;;0.82;;
53391;SDS011;41667;51.922;8.850;2023-11-19T01:21:33;0.70;;;0.70;;
53391;SDS011;41667;51.922;8.850;2023-11-19T01:23:58;0.70;;;0.70;;
53391;SDS011;41667;51.922;8.850;2023-11-19T01:26:24;0.90;;;0.90;;
53391;SDS011;41667;51.922;8.850;2023-11-19T01:28:50;0.90;;;0.90;;
53391;SDS011;41667;51.922;8.850;2023-11-19T01:31:17;0.80;;;0.80;;
53391;SDS011;41667;51.922;8.850;2023-11-19T01:33:43;0.70;;;0.70;;
53391;SDS011;41667;51.922;8.850;2023-11-19T01:36:08;0.88;;;0.88;;
53391;SDS011;41667;51.922;8.850;2023-11-19T01:38:34;1.10;;;1.10;;
53391;SDS011;41667;51.922;8.850;2023-11-19T01:41:00;1.25;;;1.25;;
53391;SDS011;41667;51.922;8.850;2023-11-19T01:43:31;0.95;;;0.95;;
53391;SDS011;41667;51.922;8.850;2023-11-19T01:46:00;2.17;;;1.60;;
53391;SDS011;41667;51.922;8.850;2023-11-19T01:48:26;1.50;;;1.40;;
53391;SDS011;41667;51.922;8.850;2023-11-19T01:50:51;1.83;;;1.63;;
53391;SDS011;41667;51.922;8.850;2023-11-19T01:53:18;1.90;;;1.80;;
53391;SDS011;41667;51.922;8.850;2023-11-19T01:55:43;1.60;;;1.50;;
53391;SDS011;41667;51.922;8.850;2023-11-19T01:58:09;1.55;;;1.45;;
53391;SDS011;41667;51.922;8.850;2023-11-19T02:00:34;1.50;;;1.40;;
53391;SDS011;41667;51.922;8.850;2023-11-19T02:02:59;1.75;;;1.65;;
53391;SDS011;41667;51.922;8.850;2023-11-19T02:05:25;1.48;;;1.40;;
53391;SDS011;41667;51.922;8.850;2023-11-19T02:07:51;1.25;;;1.20;;
53391;SDS011;41667;51.922;8.850;2023-11-19T02:10:17;2.28;;;1.27;;
53391;SDS011;41667;51.922;8.850;2023-11-19T02:12:44;1.10;;;1.10;;
53391;SDS011;41667;51.922;8.850;2023-11-19T02:15:10;1.33;;;1.13;;
53391;SDS011;41667;51.922;8.850;2023-11-19T02:17:35;0.93;;;0.93;;
53391;SDS011;41667;51.922;8.850;2023-11-19T02:20:03;1.15;;;1.15;;
53391;SDS011;41667;51.922;8.850;2023-11-19T02:22:31;1.00;;;1.00;;
53391;SDS011;41667;51.922;8.850;2023-11-19T02:24:59;1.40;;;1.30;;
53391;SDS011;41667;51.922;8.850;2023-11-19T02:30:13;2.22;;;1.15;;
53391;SDS011;41667;51.922;8.850;2023-11-19T02:32:40;0.88;;;0.88;;
53391;SDS011;41667;51.922;8.850;2023-11-19T02:35:06;1.10;;;1.10;;
53391;SDS011;41667;51.922;8.850;2023-11-19T02:37:33;1.70;;;1.60;;
53391;SDS011;41667;51.922;8.850;2023-11-19T02:39:59;3.45;;;1.40;;
53391;SDS011;41667;51.922;8.850;2023-11-19T02:42:34;2.40;;;2.20;;
53391;SDS011;41667;51.922;8.850;2023-11-19T02:45:00;1.90;;;1.80;;
53391;SDS011;41667;51.922;8.850;2023-11-19T02:47:25;2.20;;;2.10;;
53391;SDS011;41667;51.922;8.850;2023-11-19T02:49:50;2.95;;;2.67;;
53391;SDS011;41667;51.922;8.850;2023-11-19T02:52:18;2.75;;;2.53;;
53391;SDS011;41667;51.922;8.850;2023-11-19T02:54:43;6.68;;;3.38;;
53391;SDS011;41667;51.922;8.850;2023-11-19T02:57:09;2.85;;;2.00;;
53391;SDS011;41667;51.922;8.850;2023-11-19T02:59:37;4.72;;;3.42;;
53391;SDS011;41667;51.922;8.850;2023-11-19T03:02:07;2.83;;;2.55;;
53391;SDS011;41667;51.922;8.850;2023-11-19T03:04:36;4.32;;;3.88;;
53391;SDS011;41667;51.922;8.850;2023-11-19T03:07:04;4.35;;;3.05;;
53391;SDS011;41667;51.922;8.850;2023-11-19T03:09:29;4.80;;;3.92;;
53391;SDS011;41667;51.922;8.850;2023-11-19T03:11:55;5.22;;;3.78;;
53391;SDS011;41667;51.922;8.850;2023-11-19T03:14:20;4.10;;;3.70;;
53391;SDS011;41667;51.922;8.850;2023-11-19T03:16:46;11.88;;;4.57;;
53391;SDS011;41667;51.922;8.850;2023-11-19T03:19:12;5.35;;;4.00;;
53391;SDS011;41667;51.922;8.850;2023-11-19T03:21:37;5.03;;;4.28;;
53391;SDS011;41667;51.922;8.850;2023-11-19T03:24:03;7.10;;;5.05;;
53391;SDS011;41667;51.922;8.850;2023-11-19T03:26:28;6.07;;;4.68;;
53391;SDS011;41667;51.922;8.850;2023-11-19T03:28:54;6.45;;;4.75;;
53391;SDS011;41667;51.922;8.850;2023-11-19T03:31:19;7.50;;;4.72;;
53391;SDS011;41667;51.922;8.850;2023-11-19T03:33:45;7.10;;;4.75;;
53391;SDS011;41667;51.922;8.850;2023-11-19T03:36:10;6.05;;;4.75;;
53391;SDS011;41667;51.922;8.850;2023-11-19T03:38:35;6.18;;;4.72;;
53391;SDS011;41667;51.922;8.850;2023-11-19T03:41:09;4.35;;;3.80;;
53391;SDS011;41667;51.922;8.850;2023-11-19T03:43:38;4.70;;;3.92;;
53391;SDS011;41667;51.922;8.850;2023-11-19T03:46:03;5.53;;;4.95;;
53391;SDS011;41667;51.922;8.850;2023-11-19T03:48:30;2.97;;;2.70;;
53391;SDS011;41667;51.922;8.850;2023-11-19T03:50:56;5.10;;;4.28;;
53391;SDS011;41667;51.922;8.850;2023-11-19T03:53:21;4.97;;;3.80;;
53391;SDS011;41667;51.922;8.850;2023-11-19T03:55:46;9.52;;;4.43;;
53391;SDS011;41667;51.922;8.850;2023-11-19T03:58:11;7.22;;;4.03;;
53391;SDS011;41667;51.922;8.850;2023-11-19T04:00:37;7.20;;;4.55;;
53391;SDS011;41667;51.922;8.850;2023-11-19T04:03:02;8.93;;;4.25;;
53391;SDS011;41667;51.922;8.850;2023-11-19T04:05:28;7.03;;;4.07;;
53391;SDS011;41667;51.922;8.850;2023-11-19T04:07:53;4.45;;;3.80;;
53391;SDS011;41667;51.922;8.850;2023-11-19T04:10:18;5.18;;;4.30;;
53391;SDS011;41667;51.922;8.850;2023-11-19T04:12:45;6.32;;;4.00;;
53391;SDS011;41667;51.922;8.850;2023-11-19T04:15:11;10.77;;;4.78;;
53391;SDS011;41667;51.922;8.850;2023-11-19T04:17:36;5.70;;;3.63;;
53391;SDS011;41667;51.922;8.850;2023-11-19T04:20:02;3.83;;;2.70;;
53391;SDS011;41667;51.922;8.850;2023-11-19T04:22:29;5.60;;;4.60;;
53391;SDS011;41667;51.922;8.850;2023-11-19T04:24:54;8.35;;;5.07;;
53391;SDS011;41667;51.922;8.850;2023-11-19T04:27:19;8.73;;;4.15;;
53391;SDS011;41667;51.922;8.850;2023-11-19T04:29:45;7.88;;;4.20;;
53391;SDS011;41667;51.922;8.850;2023-11-19T04:32:12;14.07;;;5.30;;
53391;SDS011;41667;51.922;8.850;2023-11-19T04:34:37;9.55;;;4.07;;
53391;SDS011;41667;51.922;8.850;2023-11-19T04:37:02;7.78;;;4.50;;
53391;SDS011;41667;51.922;8.850;2023-11-19T04:39:29;8.43;;;4.50;;
53391;SDS011;41667;51.922;8.850;2023-11-19T04:41:54;10.15;;;4.65;;
53391;SDS011;41667;51.922;8.850;2023-11-19T04:44:20;9.35;;;5.55;;
53391;SDS011;41667;51.922;8.850;2023-11-19T04:46:45;6.43;;;3.85;;
53391;SDS011;41667;51.922;8.850;2023-11-19T04:49:12;5.20;;;3.53;;
53391;SDS011;41667;51.922;8.850;2023-11-19T04:51:42;6.95;;;3.40;;
53391;SDS011;41667;51.922;8.850;2023-11-19T04:54:09;5.43;;;3.95;;
53391;SDS011;41667;51.922;8.850;2023-11-19T04:56:35;4.68;;;3.13;;
53391;SDS011;41667;51.922;8.850;2023-11-19T04:59:04;5.32;;;3.42;;
53391;SDS011;41667;51.922;8.850;2023-11-19T05:01:30;7.50;;;3.72;;
53391;SDS011;41667;51.922;8.850;2023-11-19T05:03:59;6.63;;;3.80;;
53391;SDS011;41667;51.922;8.850;2023-11-19T05:06:28;10.93;;;3.42;;
53391;SDS011;41667;51.922;8.850;2023-11-19T05:08:54;10.77;;;3.67;;
53391;SDS011;41667;51.922;8.850;2023-11-19T05:11:19;7.47;;;2.88;;
53391;SDS011;41667;51.922;8.850;2023-11-19T05:13:45;10.43;;;2.92;;
53391;SDS011;41667;51.922;8.850;2023-11-19T05:16:10;7.35;;;2.92;;
53391;SDS011;41667;51.922;8.850;2023-11-19T05:18:36;8.02;;;3.25;;
53391;SDS011;41667;51.922;8.850;2023-11-19T05:21:01;15.75;;;3.75;;
53391;SDS011;41667;51.922;8.850;2023-11-19T05:23:27;7.57;;;2.80;;
53391;SDS011;41667;51.922;8.850;2023-11-19T05:25:52;12.27;;;4.25;;
53391;SDS011;41667;51.922;8.850;2023-11-19T05:28:17;5.78;;;2.97;;
53391;SDS011;41667;51.922;8.850;2023-11-19T05:30:42;13.20;;;3.90;;
53391;SDS011;41667;51.922;8.850;2023-11-19T05:33:09;9.18;;;3.55;;
53391;SDS011;41667;51.922;8.850;2023-11-19T05:35:35;8.65;;;3.42;;
53391;SDS011;41667;51.922;8.850;2023-11-19T05:38:01;7.72;;;3.67;;
53391;SDS011;41667;51.922;8.850;2023-11-19T05:40:27;5.43;;;3.30;;
53391;SDS011;41667;51.922;8.850;2023-11-19T05:42:53;17.23;;;5.85;;
53391;SDS011;41667;51.922;8.850;2023-11-19T05:45:18;4.57;;;3.10;;
53391;SDS011;41667;51.922;8.850;2023-11-19T05:47:43;6.38;;;4.57;;
53391;SDS011;41667;51.922;8.850;2023-11-19T05:50:09;9.75;;;4.45;;
53391;SDS011;41667;51.922;8.850;2023-11-19T05:52:35;6.95;;;3.13;;
53391;SDS011;41667;51.922;8.850;2023-11-19T05:55:00;16.35;;;4.88;;
53391;SDS011;41667;51.922;8.850;2023-11-19T05:57:29;10.25;;;4.80;;
53391;SDS011;41667;51.922;8.850;2023-11-19T05:59:54;10.90;;;4.80;;
53391;SDS011;41667;51.922;8.850;2023-11-19T06:02:20;10.50;;;4.13;;
53391;SDS011;41667;51.922;8.850;2023-11-19T06:04:45;11.23;;;3.90;;
53391;SDS011;41667;51.922;8.850;2023-11-19T06:07:13;12.40;;;4.70;;
53391;SDS011;41667;51.922;8.850;2023-11-19T06:09:38;13.55;;;4.00;;
53391;SDS011;41667;51.922;8.850;2023-11-19T06:12:05;13.52;;;3.58;;
53391;SDS011;41667;51.922;8.850;2023-11-19T06:14:31;5.10;;;2.25;;
53391;SDS011;41667;51.922;8.850;2023-11-19T06:16:56;6.72;;;3.58;;
53391;SDS011;41667;51.922;8.850;2023-11-19T06:19:22;9.23;;;3.42;;
53391;SDS011;41667;51.922;8.850;2023-11-19T06:21:49;8.20;;;3.60;;
53391;SDS011;41667;51.922;8.850;2023-11-19T06:24:14;9.25;;;4.32;;
53391;SDS011;41667;51.922;8.850;2023-11-19T06:26:40;11.02;;;3.80;;
53391;SDS011;41667;51.922;8.850;2023-11-19T06:29:05;10.77;;;3.97;;
53391;SDS011;41667;51.922;8.850;2023-11-19T06:31:30;9.63;;;2.80;;
53391;SDS011;41667;51.922;8.850;2023-11-19T06:33:56;17.23;;;3.95;;
53391;SDS011;41667;51.922;8.850;2023-11-19T06:36:21;13.23;;;3.55;;
53391;SDS011;41667;51.922;8.850;2023-11-19T06:38:46;14.13;;;3.25;;
53391;SDS011;41667;51.922;8.850;2023-11-19T06:41:12;9.88;;;3.30;;
53391;SDS011;41667;51.922;8.850;2023-11-19T06:43:37;11.00;;;3.17;;
53391;SDS011;41667;51.922;8.850;2023-11-19T06:46:02;13.13;;;3.13;;
53391;SDS011;41667;51.922;8.850;2023-11-19T06:48:30;13.63;;;4.00;;
53391;SDS011;41667;51.922;8.850;2023-11-19T06:50:57;22.25;;;3.47;;
53391;SDS011;41667;51.922;8.850;2023-11-19T06:53:22;12.60;;;3.42;;
53391;SDS011;41667;51.922;8.850;2023-11-19T06:55:47;11.68;;;3.75;;
53391;SDS011;41667;51.922;8.850;2023-11-19T06:58:12;13.05;;;4.13;;
53391;SDS011;41667;51.922;8.850;2023-11-19T07:00:38;7.57;;;3.17;;
53391;SDS011;41667;51.922;8.850;2023-11-19T07:03:03;12.55;;;3.13;;
53391;SDS011;41667;51.922;8.850;2023-11-19T07:05:29;9.98;;;3.25;;
53391;SDS011;41667;51.922;8.850;2023-11-19T07:07:55;11.30;;;3.20;;
53391;SDS011;41667;51.922;8.850;2023-11-19T07:10:20;19.52;;;4.13;;
53391;SDS011;41667;51.922;8.850;2023-11-19T07:12:46;7.25;;;4.25;;
53391;SDS011;41667;51.922;8.850;2023-11-19T07:15:12;19.33;;;3.30;;
53391;SDS011;41667;51.922;8.850;2023-11-19T07:17:38;15.32;;;3.13;;
53391;SDS011;41667;51.922;8.850;2023-11-19T07:20:05;11.95;;;3.40;;
53391;SDS011;41667;51.922;8.850;2023-11-19T07:22:30;17.08;;;3.63;;
53391;SDS011;41667;51.922;8.850;2023-11-19T07:24:56;14.82;;;3.00;;
53391;SDS011;41667;51.922;8.850;2023-11-19T07:27:21;21.63;;;3.95;;
53391;SDS011;41667;51.922;8.850;2023-11-19T07:29:47;15.63;;;4.72;;
53391;SDS011;41667;51.922;8.850;2023-11-19T07:32:13;20.23;;;3.10;;
53391;SDS011;41667;51.922;8.850;2023-11-19T07:34:41;9.80;;;2.92;;
53391;SDS011;41667;51.922;8.850;2023-11-19T07:37:06;10.15;;;3.25;;
53391;SDS011;41667;51.922;8.850;2023-11-19T07:39:32;13.18;;;3.22;;
53391;SDS011;41667;51.922;8.850;2023-11-19T07:41:57;18.67;;;4.22;;
53391;SDS011;41667;51.922;8.850;2023-11-19T07:44:23;16.38;;;4.07;;
53391;SDS011;41667;51.922;8.850;2023-11-19T07:46:48;16.75;;;4.00;;
53391;SDS011;41667;51.922;8.850;2023-11-19T07:49:13;13.75;;;3.08;;
53391;SDS011;41667;51.922;8.850;2023-11-19T07:51:39;14.85;;;3.83;;
53391;SDS011;41667;51.922;8.850;2023-11-19T07:54:04;12.80;;;3.28;;
53391;SDS011;41667;51.922;8.850;2023-11-19T07:56:30;12.60;;;2.92;;
53391;SDS011;41667;51.922;8.850;2023-11-19T07:58:55;8.15;;;3.33;;
53391;SDS011;41667;51.922;8.850;2023-11-19T08:01:20;14.55;;;2.75;;
53391;SDS011;41667;51.922;8.850;2023-11-19T08:03:46;11.60;;;2.08;;
53391;SDS011;41667;51.922;8.850;2023-11-19T08:06:11;18.50;;;4.00;;
53391;SDS011;41667;51.922;8.850;2023-11-19T08:08:36;22.70;;;5.45;;
53391;SDS011;41667;51.922;8.850;2023-11-19T08:11:03;13.93;;;3.88;;
53391;SDS011;41667;51.922;8.850;2023-11-19T08:13:30;15.07;;;3.35;;
53391;SDS011;41667;51.922;8.850;2023-11-19T08:15:56;23.20;;;5.28;;
53391;SDS011;41667;51.922;8.850;2023-11-19T08:18:23;7.18;;;2.88;;
53391;SDS011;41667;51.922;8.850;2023-11-19T08:20:48;7.95;;;3.67;;
53391;SDS011;41667;51.922;8.850;2023-11-19T08:23:17;16.00;;;3.25;;
53391;SDS011;41667;51.922;8.850;2023-11-19T08:25:43;21.05;;;4.43;;
53391;SDS011;41667;51.922;8.850;2023-11-19T08:28:09;15.93;;;3.40;;
53391;SDS011;41667;51.922;8.850;2023-11-19T08:30:34;12.80;;;3.33;;
53391;SDS011;41667;51.922;8.850;2023-11-19T08:33:00;15.50;;;3.75;;
53391;SDS011;41667;51.922;8.850;2023-11-19T08:35:27;13.07;;;3.78;;
53391;SDS011;41667;51.922;8.850;2023-11-19T08:37:53;19.52;;;3.80;;
53391;SDS011;41667;51.922;8.850;2023-11-19T08:40:19;14.60;;;3.70;;
53391;SDS011;41667;51.922;8.850;2023-11-19T08:42:45;20.90;;;3.50;;
53391;SDS011;41667;51.922;8.850;2023-11-19T08:45:10;15.63;;;3.55;;
53391;SDS011;41667;51.922;8.850;2023-11-19T08:47:36;10.00;;;2.80;;
53391;SDS011;41667;51.922;8.850;2023-11-19T08:50:02;12.93;;;3.20;;
53391;SDS011;41667;51.922;8.850;2023-11-19T08:52:29;16.75;;;3.75;;
53391;SDS011;41667;51.922;8.850;2023-11-19T08:54:54;13.35;;;3.53;;
53391;SDS011;41667;51.922;8.850;2023-11-19T08:57:20;16.25;;;3.40;;
53391;SDS011;41667;51.922;8.850;2023-11-19T08:59:45;17.42;;;4.70;;
53391;SDS011;41667;51.922;8.850;2023-11-19T09:02:10;11.25;;;3.25;;
53391;SDS011;41667;51.922;8.850;2023-11-19T09:04:36;13.55;;;3.83;;
53391;SDS011;41667;51.922;8.850;2023-11-19T09:07:02;13.07;;;3.40;;
53391;SDS011;41667;51.922;8.850;2023-11-19T09:09:28;12.60;;;3.92;;
53391;SDS011;41667;51.922;8.850;2023-11-19T09:11:53;16.40;;;3.95;;
53391;SDS011;41667;51.922;8.850;2023-11-19T09:14:19;16.90;;;3.58;;
53391;SDS011;41667;51.922;8.850;2023-11-19T09:16:49;11.13;;;4.20;;
53391;SDS011;41667;51.922;8.850;2023-11-19T09:19:14;17.90;;;3.42;;
53391;SDS011;41667;51.922;8.850;2023-11-19T09:21:39;12.27;;;2.80;;
53391;SDS011;41667;51.922;8.850;2023-11-19T09:24:05;9.70;;;3.53;;
53391;SDS011;41667;51.922;8.850;2023-11-19T09:26:30;15.32;;;4.20;;
53391;SDS011;41667;51.922;8.850;2023-11-19T09:28:56;15.60;;;3.60;;
53391;SDS011;41667;51.922;8.850;2023-11-19T09:31:21;16.58;;;3.72;;
53391;SDS011;41667;51.922;8.850;2023-11-19T09:33:46;23.77;;;3.95;;
53391;SDS011;41667;51.922;8.850;2023-11-19T09:36:12;12.35;;;2.65;;
53391;SDS011;41667;51.922;8.850;2023-11-19T09:38:39;10.02;;;3.20;;
53391;SDS011;41667;51.922;8.850;2023-11-19T09:41:05;15.65;;;3.28;;
53391;SDS011;41667;51.922;8.850;2023-11-19T09:43:33;15.15;;;3.83;;
53391;SDS011;41667;51.922;8.850;2023-11-19T09:45:59;25.00;;;3.83;;
53391;SDS011;41667;51.922;8.850;2023-11-19T09:48:32;10.48;;;3.55;;
53391;SDS011;41667;51.922;8.850;2023-11-19T09:50:58;18.17;;;3.35;;
53391;SDS011;41667;51.922;8.850;2023-11-19T09:53:24;18.58;;;4.13;;
53391;SDS011;41667;51.922;8.850;2023-11-19T09:55:49;21.13;;;5.00;;
53391;SDS011;41667;51.922;8.850;2023-11-19T09:58:15;20.23;;;4.07;;
53391;SDS011;41667;51.922;8.850;2023-11-19T10:00:40;14.02;;;2.97;;
53391;SDS011;41667;51.922;8.850;2023-11-19T10:03:07;16.75;;;4.00;;
53391;SDS011;41667;51.922;8.850;2023-11-19T10:05:32;16.60;;;3.80;;
53391;SDS011;41667;51.922;8.850;2023-11-19T10:07:58;16.15;;;3.88;;
53391;SDS011;41667;51.922;8.850;2023-11-19T10:10:23;19.35;;;4.30;;
53391;SDS011;41667;51.922;8.850;2023-11-19T10:12:52;20.98;;;5.22;;
53391;SDS011;41667;51.922;8.850;2023-11-19T10:15:19;9.90;;;3.08;;
53391;SDS011;41667;51.922;8.850;2023-11-19T10:17:46;20.95;;;3.13;;
53391;SDS011;41667;51.922;8.850;2023-11-19T10:20:11;13.05;;;3.78;;
53391;SDS011;41667;51.922;8.850;2023-11-19T10:22:36;19.65;;;3.65;;
53391;SDS011;41667;51.922;8.850;2023-11-19T10:25:02;10.63;;;2.60;;
53391;SDS011;41667;51.922;8.850;2023-11-19T10:27:27;24.05;;;3.35;;
53391;SDS011;41667;51.922;8.850;2023-11-19T10:29:52;14.02;;;2.35;;
53391;SDS011;41667;51.922;8.850;2023-11-19T10:32:18;12.82;;;4.28;;
53391;SDS011;41667;51.922;8.850;2023-11-19T10:34:43;17.80;;;5.13;;
53391;SDS011;41667;51.922;8.850;2023-11-19T10:37:09;12.85;;;4.00;;
53391;SDS011;41667;51.922;8.850;2023-11-19T10:39:51;12.82;;;4.00;;
53391;SDS011;41667;51.922;8.850;2023-11-19T10:42:19;9.07;;;2.78;;
53391;SDS011;41667;51.922;8.850;2023-11-19T10:44:44;11.25;;;3.13;;
53391;SDS011;41667;51.922;8.850;2023-11-19T10:47:09;15.95;;;3.00;;
53391;SDS011;41667;51.922;8.850;2023-11-19T10:49:35;13.13;;;3.95;;
53391;SDS011;41667;51.922;8.850;2023-11-19T10:52:01;18.30;;;3.88;;
53391;SDS011;41667;51.922;8.850;2023-11-19T10:54:26;21.70;;;3.78;;
53391;SDS011;41667;51.922;8.850;2023-11-19T10:56:57;18.77;;;3.92;;
53391;SDS011;41667;51.922;8.850;2023-11-19T10:59:23;11.95;;;3.00;;
53391;SDS011;41667;51.922;8.850;2023-11-19T11:01:51;14.43;;;2.97;;
53391;SDS011;41667;51.922;8.850;2023-11-19T11:04:19;9.02;;;3.03;;
53391;SDS011;41667;51.922;8.850;2023-11-19T11:06:48;16.92;;;3.30;;
53391;SDS011;41667;51.922;8.850;2023-11-19T11:09:13;17.27;;;3.65;;
53391;SDS011;41667;51.922;8.850;2023-11-19T11:11:40;17.00;;;3.60;;
53391;SDS011;41667;51.922;8.850;2023-11-19T11:14:06;17.70;;;4.03;;
53391;SDS011;41667;51.922;8.850;2023-11-19T11:16:31;14.90;;;3.47;;
53391;SDS011;41667;51.922;8.850;2023-11-19T11:18:57;6.70;;;2.25;;
53391;SDS011;41667;51.922;8.850;2023-11-19T11:21:24;17.23;;;3.63;;
53391;SDS011;41667;51.922;8.850;2023-11-19T11:24:09;18.27;;;3.72;;
53391;SDS011;41667;51.922;8.850;2023-11-19T11:27:06;10.23;;;2.88;;
53391;SDS011;41667;51.922;8.850;2023-11-19T11:35:24;10.65;;;3.17;;
53391;SDS011;41667;51.922;8.850;2023-11-19T11:38:04;17.80;;;4.03;;
53391;SDS011;41667;51.922;8.850;2023-11-19T11:40:31;12.05;;;3.00;;
53391;SDS011;41667;51.922;8.850;2023-11-19T11:42:57;11.63;;;3.15;;
53391;SDS011;41667;51.922;8.850;2023-11-19T11:45:35;12.77;;;3.60;;
53391;SDS011;41667;51.922;8.850;2023-11-19T11:48:05;12.05;;;2.85;;
53391;SDS011;41667;51.922;8.850;2023-11-19T11:50:34;17.83;;;3.47;;
53391;SDS011;41667;51.922;8.850;2023-11-19T11:58:01;17.13;;;3.25;;
53391;SDS011;41667;51.922;8.850;2023-11-19T12:02:56;12.30;;;2.90;;
53391;SDS011;41667;51.922;8.850;2023-11-19T12:05:22;15.43;;;3.38;;
53391;SDS011;41667;51.922;8.850;2023-11-19T12:08:25;11.55;;;2.65;;
53391;SDS011;41667;51.922;8.850;2023-11-19T12:13:13;10.52;;;3.03;;
53391;SDS011;41667;51.922;8.850;2023-11-19T12:16:06;14.23;;;3.20;;
53391;SDS011;41667;51.922;8.850;2023-11-19T12:18:32;13.27;;;3.55;;
53391;SDS011;41667;51.922;8.850;2023-11-19T12:20:58;12.35;;;3.35;;
53391;SDS011;41667;51.922;8.850;2023-11-19T12:23:28;14.77;;;3.38;;
53391;SDS011;41667;51.922;8.850;2023-11-19T12:25:54;13.02;;;3.28;;
53391;SDS011;41667;51.922;8.850;2023-11-19T12:28:20;12.38;;;3.28;;
53391;SDS011;41667;51.922;8.850;2023-11-19T12:30:45;17.42;;;2.90;;
53391;SDS011;41667;51.922;8.850;2023-11-19T12:33:11;10.95;;;2.75;;
53391;SDS011;41667;51.922;8.850;2023-11-19T12:35:40;21.45;;;3.95;;
53391;SDS011;41667;51.922;8.850;2023-11-19T12:38:07;13.35;;;2.40;;
53391;SDS011;41667;51.922;8.850;2023-11-19T12:40:32;15.68;;;3.28;;
53391;SDS011;41667;51.922;8.850;2023-11-19T12:42:58;10.80;;;3.00;;
53391;SDS011;41667;51.922;8.850;2023-11-19T12:45:24;19.80;;;4.28;;
53391;SDS011;41667;51.922;8.850;2023-11-19T12:47:50;18.45;;;3.60;;
53391;SDS011;41667;51.922;8.850;2023-11-19T12:50:50;22.30;;;3.50;;
53391;SDS011;41667;51.922;8.850;2023-11-19T12:53:20;14.38;;;3.38;;
53391;SDS011;41667;51.922;8.850;2023-11-19T12:55:46;25.10;;;3.13;;
53391;SDS011;41667;51.922;8.850;2023-11-19T12:58:27;10.13;;;2.67;;
53391;SDS011;41667;51.922;8.850;2023-11-19T13:00:59;14.10;;;2.53;;
53391;SDS011;41667;51.922;8.850;2023-11-19T13:03:31;8.77;;;3.00;;
53391;SDS011;41667;51.922;8.850;2023-11-19T13:06:04;21.35;;;3.33;;
53391;SDS011;41667;51.922;8.850;2023-11-19T13:08:48;13.07;;;2.85;;
53391;SDS011;41667;51.922;8.850;2023-11-19T13:11:32;20.58;;;4.63;;
53391;SDS011;41667;51.922;8.850;2023-11-19T13:14:00;19.25;;;5.63;;
53391;SDS011;41667;51.922;8.850;2023-11-19T13:16:29;13.00;;;2.85;;
53391;SDS011;41667;51.922;8.850;2023-11-19T13:18:55;14.35;;;3.90;;
53391;SDS011;41667;51.922;8.850;2023-11-19T13:21:20;14.93;;;3.30;;
53391;SDS011;41667;51.922;8.850;2023-11-19T13:23:45;15.95;;;3.38;;
53391;SDS011;41667;51.922;8.850;2023-11-19T13:26:11;17.30;;;3.42;;
53391;SDS011;41667;51.922;8.850;2023-11-19T13:28:36;9.48;;;3.67;;
53391;SDS011;41667;51.922;8.850;2023-11-19T13:31:02;20.40;;;3.47;;
53391;SDS011;41667;51.922;8.850;2023-11-19T13:33:29;14.43;;;3.03;;
53391;SDS011;41667;51.922;8.850;2023-11-19T13:35:54;21.55;;;3.60;;
53391;SDS011;41667;51.922;8.850;2023-11-19T13:38:20;9.65;;;2.53;;
53391;SDS011;41667;51.922;8.850;2023-11-19T13:40:45;14.63;;;3.92;;
53391;SDS011;41667;51.922;8.850;2023-11-19T13:43:10;16.92;;;3.40;;
53391;SDS011;41667;51.922;8.850;2023-11-19T13:45:36;13.77;;;2.70;;
53391;SDS011;41667;51.922;8.850;2023-11-19T13:48:02;10.30;;;3.22;;
53391;SDS011;41667;51.922;8.850;2023-11-19T13:50:27;17.15;;;3.50;;
53391;SDS011;41667;51.922;8.850;2023-11-19T13:52:53;13.82;;;3.03;;
53391;SDS011;41667;51.922;8.850;2023-11-19T13:55:19;9.60;;;3.17;;
53391;SDS011;41667;51.922;8.850;2023-11-19T13:57:44;16.02;;;3.35;;
53391;SDS011;41667;51.922;8.850;2023-11-19T14:00:10;18.38;;;3.95;;
53391;SDS011;41667;51.922;8.850;2023-11-19T14:02:38;13.70;;;3.92;;
53391;SDS011;41667;51.922;8.850;2023-11-19T14:05:05;9.65;;;2.88;;
53391;SDS011;41667;51.922;8.850;2023-11-19T14:07:30;16.02;;;3.30;;
53391;SDS011;41667;51.922;8.850;2023-11-19T14:09:56;19.08;;;2.88;;
53391;SDS011;41667;51.922;8.850;2023-11-19T14:12:21;16.42;;;3.05;;
53391;SDS011;41667;51.922;8.850;2023-11-19T14:14:47;15.90;;;4.07;;
53391;SDS011;41667;51.922;8.850;2023-11-19T14:17:12;15.35;;;3.38;;
53391;SDS011;41667;51.922;8.850;2023-11-19T14:19:38;12.88;;;3.15;;
53391;SDS011;41667;51.922;8.850;2023-11-19T14:22:04;14.60;;;2.67;;
53391;SDS011;41667;51.922;8.850;2023-11-19T14:24:29;12.45;;;2.90;;
53391;SDS011;41667;51.922;8.850;2023-11-19T14:26:55;12.55;;;2.65;;
53391;SDS011;41667;51.922;8.850;2023-11-19T14:29:23;11.27;;;2.50;;
53391;SDS011;41667;51.922;8.850;2023-11-19T14:31:48;6.60;;;2.58;;
53391;SDS011;41667;51.922;8.850;2023-11-19T14:34:13;7.80;;;1.67;;
53391;SDS011;41667;51.922;8.850;2023-11-19T14:36:39;11.98;;;2.80;;
53391;SDS011;41667;51.922;8.850;2023-11-19T14:39:04;14.82;;;2.67;;
53391;SDS011;41667;51.922;8.850;2023-11-19T14:41:29;11.80;;;2.38;;
53391;SDS011;41667;51.922;8.850;2023-11-19T14:43:54;14.02;;;4.82;;
53391;SDS011;41667;51.922;8.850;2023-11-19T14:46:20;11.95;;;3.28;;
53391;SDS011;41667;51.922;8.850;2023-11-19T14:48:45;17.70;;;2.63;;
53391;SDS011;41667;51.922;8.850;2023-11-19T14:51:10;13.00;;;3.35;;
53391;SDS011;41667;51.922;8.850;2023-11-19T14:53:36;5.78;;;1.77;;
53391;SDS011;41667;51.922;8.850;2023-11-19T14:56:01;8.68;;;2.30;;